Huvudsida
METAR-TAF:

METAR-TAF

Flygplatser :

Cervia, Italien

latitud: 44-13N, longitud: 012-18E, höjd: 6 m

Aktuellt väderrapport

Denna rapport gjordes för 52 minuter sedan, klockan 13:55 UTC
Vind 5 kt från nordost
Temperatur 31°C
Fuktighet 59%
Tryck 1021 hPa
Sikt 10 km eller mer
Inga moln under 1 500 m eller inga cumulonimbus

METAR: LIPC 261355Z 05005KT CAVOK 31/22 Q1021 RMK SKC VIS MIN 9999 WIND THR11 /////KT WIND THR29 06006KT BLU

Tid: 16:47 (14:47 UTC)

Väderprognos

Denna rapport gjordes för 47 minuter sedan, klockan 14:00 UTC
Prognos gäller från 26 kl. 15 UTC till 26 kl. 24 UTC
Vind 7 kt från ost/nordost
Sikt 10 km eller mer
Inga moln under 1 500 m eller inga cumulonimbus

TAF: LIPC 261400Z 2615/2624 06007KT CAVOK

Aktuella väderrapporter och prognoser från 4000 flygplatser (METAR- och TAF-rapporter).

De tillgängliga stationerna syns som gula och röda prickar på kartan.

För musen över prickarna för att se namnen på stationerna.

Klicka sedan för att få väderrapporter och prognoser.

För att ändra kartan: Klicka på de gröna knapparna med ett svart kors på för att zooma in; den gröna knappen med ett streck på för att zooma ut; eller på de gröna pilarna för angränsande kartor.


METAR-TAF: